createdAt,value
2018-07-19T00:01:33.860Z,2.80
2018-07-19T00:04:02.290Z,2.90
2018-07-19T00:06:31.290Z,3.30
2018-07-19T00:09:00.373Z,3.00
2018-07-19T00:11:28.587Z,3.20
2018-07-19T00:13:56.838Z,2.87
2018-07-19T00:16:25.916Z,3.37
2018-07-19T00:18:54.247Z,2.63
2018-07-19T00:21:23.202Z,2.80
2018-07-19T00:23:51.465Z,2.83
2018-07-19T00:26:20.666Z,2.90
2018-07-19T00:28:49.687Z,3.10
2018-07-19T00:31:17.933Z,3.00
2018-07-19T00:33:47.111Z,2.83
2018-07-19T00:36:15.330Z,3.07
2018-07-19T00:38:43.577Z,2.90
2018-07-19T00:41:12.584Z,2.77
2018-07-19T00:43:40.837Z,2.70
2018-07-19T00:46:09.873Z,2.70
2018-07-19T00:48:38.125Z,2.63
2018-07-19T00:51:07.131Z,3.17
2018-07-19T00:53:35.382Z,2.87
2018-07-19T00:56:04.405Z,3.33
2018-07-19T00:58:33.029Z,2.77
2018-07-19T01:01:01.266Z,2.83
2018-07-19T01:03:29.539Z,2.97
2018-07-19T01:05:57.797Z,3.03
2018-07-19T01:08:26.056Z,3.20
2018-07-19T01:10:54.898Z,3.00
2018-07-19T01:13:23.145Z,2.90
2018-07-19T01:15:51.386Z,3.23
2018-07-19T01:18:20.406Z,2.90
2018-07-19T01:20:48.648Z,2.97
2018-07-19T01:23:16.931Z,3.00
2018-07-19T01:25:45.934Z,2.80
2018-07-19T01:28:14.955Z,3.13
2018-07-19T01:30:43.210Z,3.10
2018-07-19T01:33:11.453Z,3.13
2018-07-19T01:35:39.713Z,2.90
2018-07-19T01:38:07.955Z,2.57
2018-07-19T01:40:36.217Z,3.23
2018-07-19T01:43:04.461Z,3.00
2018-07-19T01:45:33.478Z,2.90
2018-07-19T01:48:01.719Z,3.30
2018-07-19T01:50:29.969Z,3.23
2018-07-19T01:52:58.221Z,3.00
2018-07-19T01:55:26.656Z,2.83
2018-07-19T01:57:54.881Z,3.20
2018-07-19T02:00:23.142Z,2.97
2018-07-19T02:02:51.380Z,3.20
2018-07-19T02:05:20.392Z,2.87
2018-07-19T02:07:48.649Z,2.90
2018-07-19T02:10:17.682Z,2.90
2018-07-19T02:12:45.937Z,2.90
2018-07-19T02:15:14.173Z,3.00
2018-07-19T02:17:42.435Z,3.30
2018-07-19T02:20:10.674Z,2.53
2018-07-19T02:22:39.261Z,2.57
2018-07-19T02:25:07.500Z,2.90
2018-07-19T02:27:36.508Z,2.73
2018-07-19T02:30:04.768Z,2.63
2018-07-19T02:32:33.771Z,3.03
2018-07-19T02:35:02.422Z,2.80
2018-07-19T02:37:30.650Z,2.80
2018-07-19T02:39:58.890Z,3.03
2018-07-19T02:42:27.906Z,3.10
2018-07-19T02:44:56.146Z,3.13
2018-07-19T02:47:24.393Z,3.00
2018-07-19T02:49:52.643Z,2.80
2018-07-19T02:52:21.220Z,3.03
2018-07-19T02:54:49.482Z,3.00
2018-07-19T02:57:17.726Z,3.07
2018-07-19T02:59:45.966Z,3.00
2018-07-19T03:02:15.041Z,2.87
2018-07-19T03:04:43.416Z,3.30
2018-07-19T03:07:11.670Z,3.00
2018-07-19T03:09:40.770Z,3.10
2018-07-19T03:12:09.259Z,2.90
2018-07-19T03:14:37.498Z,3.10
2018-07-19T03:17:06.569Z,3.13
2018-07-19T03:19:35.336Z,3.00
2018-07-19T03:22:03.574Z,3.17
2018-07-19T03:24:31.819Z,3.40
2018-07-19T03:27:00.090Z,3.50
2018-07-19T03:29:28.352Z,2.93
2018-07-19T03:31:56.606Z,3.30
2018-07-19T03:34:24.838Z,3.00
2018-07-19T03:36:53.842Z,2.40
2018-07-19T03:39:22.102Z,2.90
2018-07-19T03:41:51.106Z,3.20
2018-07-19T03:44:20.121Z,2.87
2018-07-19T03:46:48.377Z,2.90
2018-07-19T03:49:16.622Z,3.13
2018-07-19T03:51:44.883Z,3.10
2018-07-19T03:54:13.313Z,3.00
2018-07-19T03:56:41.561Z,3.00
2018-07-19T03:59:09.810Z,2.97
2018-07-19T04:01:38.050Z,3.10
2018-07-19T04:04:06.286Z,3.47
2018-07-19T04:06:34.976Z,3.53
2018-07-19T04:09:03.981Z,3.20
2018-07-19T04:11:32.981Z,3.03
2018-07-19T04:14:01.236Z,2.63
2018-07-19T04:16:30.251Z,3.20
2018-07-19T04:18:58.493Z,3.30
2018-07-19T04:21:27.580Z,2.87
2018-07-19T04:23:55.825Z,3.20
2018-07-19T04:26:24.831Z,3.50
2018-07-19T04:28:53.065Z,3.77
2018-07-19T04:31:21.325Z,3.30
2018-07-19T04:33:50.350Z,3.00
2018-07-19T04:36:18.606Z,3.60
2018-07-19T04:38:47.065Z,3.77
2018-07-19T04:41:15.317Z,3.53
2018-07-19T04:43:43.559Z,3.47
2018-07-19T04:46:11.808Z,3.37
2018-07-19T04:48:40.051Z,3.40
2018-07-19T04:51:09.073Z,3.30
2018-07-19T04:53:37.546Z,3.67
2018-07-19T04:56:06.647Z,3.30
2018-07-19T04:58:34.890Z,4.27
2018-07-19T05:01:03.558Z,4.20
2018-07-19T05:03:31.786Z,3.60
2018-07-19T05:06:01.210Z,3.83
2018-07-19T05:08:30.214Z,3.80
2018-07-19T05:10:58.455Z,3.57
2018-07-19T05:13:26.696Z,3.93
2018-07-19T05:15:55.953Z,3.47
2018-07-19T05:18:24.205Z,4.20
2018-07-19T05:20:53.697Z,4.10
2018-07-19T05:23:21.955Z,3.70
2018-07-19T05:25:50.949Z,3.67
2018-07-19T05:28:20.149Z,3.37
2018-07-19T05:30:48.410Z,3.70
2018-07-19T05:33:17.409Z,3.30
2018-07-19T05:35:46.521Z,3.60
2018-07-19T05:38:14.763Z,4.73
2018-07-19T05:40:42.995Z,4.43
2018-07-19T05:43:11.242Z,4.10
2018-07-19T05:45:39.490Z,4.50
2018-07-19T05:48:08.497Z,4.80
2018-07-19T05:50:37.153Z,4.80
2018-07-19T05:53:05.397Z,4.27
2018-07-19T05:55:33.648Z,4.60
2018-07-19T05:58:01.917Z,4.27
2018-07-19T06:00:30.144Z,4.70
2018-07-19T06:02:58.389Z,4.20
2018-07-19T06:05:26.642Z,4.27
2018-07-19T06:07:54.878Z,3.60
2018-07-19T06:10:23.131Z,4.17
2018-07-19T06:12:51.385Z,3.60
2018-07-19T06:15:19.621Z,3.63
2018-07-19T06:17:48.045Z,3.43
2018-07-19T06:20:16.306Z,3.27
2018-07-19T06:22:44.558Z,2.97
2018-07-19T06:25:13.570Z,3.00
2018-07-19T06:27:41.823Z,2.67
2018-07-19T06:30:10.070Z,2.50
2018-07-19T06:32:38.310Z,2.47
2018-07-19T06:35:06.569Z,2.50
2018-07-19T06:37:34.809Z,2.70
2018-07-19T06:40:03.823Z,2.57
2018-07-19T06:42:32.314Z,2.70
2018-07-19T06:45:00.550Z,2.37
2018-07-19T06:47:28.906Z,2.57
2018-07-19T06:49:57.145Z,2.60
2018-07-19T06:52:25.384Z,2.30
2018-07-19T06:54:54.495Z,2.33
2018-07-19T06:57:22.761Z,2.47
2018-07-19T06:59:51.754Z,2.83
2018-07-19T07:02:20.763Z,2.20
2018-07-19T07:04:49.021Z,2.70
2018-07-19T07:07:18.034Z,2.37
2018-07-19T07:09:46.270Z,2.47
2018-07-19T07:12:14.538Z,2.63
2018-07-19T07:14:42.793Z,2.80
2018-07-19T07:17:11.041Z,2.57
2018-07-19T07:19:39.282Z,2.40
2018-07-19T07:22:08.604Z,2.50
2018-07-19T07:24:37.237Z,2.10
2018-07-19T07:27:05.469Z,2.07
2018-07-19T07:29:33.721Z,2.57
2018-07-19T07:32:02.731Z,2.47
2018-07-19T07:34:30.997Z,2.30
2018-07-19T07:37:00.001Z,2.40
2018-07-19T07:39:28.250Z,2.50
2018-07-19T07:41:57.257Z,2.53
2018-07-19T07:44:25.525Z,2.30
2018-07-19T07:46:54.528Z,2.43
2018-07-19T07:49:22.765Z,2.30
2018-07-19T07:51:51.020Z,2.50
2018-07-19T07:54:19.373Z,2.10
2018-07-19T07:56:47.952Z,2.43
2018-07-19T07:59:16.234Z,2.30
2018-07-19T08:01:44.729Z,2.30
2018-07-19T08:04:12.973Z,2.00
2018-07-19T08:06:41.450Z,1.97
2018-07-19T08:09:09.712Z,2.30
2018-07-19T08:11:38.701Z,2.10
2018-07-19T08:14:06.977Z,2.00
2018-07-19T08:16:36.020Z,2.03
2018-07-19T08:19:04.386Z,2.20
2018-07-19T08:21:32.629Z,1.93
2018-07-19T08:24:01.941Z,1.97
2018-07-19T08:26:30.195Z,2.20
2018-07-19T08:28:59.254Z,2.20
2018-07-19T08:31:27.872Z,2.00
2018-07-19T08:33:56.886Z,2.57
2018-07-19T08:36:25.130Z,2.23
2018-07-19T08:38:54.137Z,2.30
2018-07-19T08:41:23.163Z,2.23
2018-07-19T08:43:51.411Z,2.40
2018-07-19T08:46:19.656Z,2.20
2018-07-19T08:48:47.889Z,2.20
2018-07-19T08:51:16.719Z,2.20
2018-07-19T08:53:44.935Z,2.03
2018-07-19T08:56:13.175Z,2.27
2018-07-19T08:58:42.186Z,2.20
2018-07-19T09:01:10.435Z,2.20
2018-07-19T09:03:39.454Z,1.87
2018-07-19T09:06:07.707Z,2.10
2018-07-19T09:08:36.467Z,1.97
2018-07-19T09:11:04.695Z,1.90
2018-07-19T09:13:32.942Z,2.40
2018-07-19T09:16:02.157Z,1.90
2018-07-19T09:18:31.560Z,1.97
2018-07-19T09:20:59.802Z,2.17
2018-07-19T09:23:28.062Z,2.20
2018-07-19T09:25:56.306Z,2.17
2018-07-19T09:28:24.537Z,1.90
2018-07-19T09:30:53.553Z,2.20
2018-07-19T09:33:21.796Z,1.93
2018-07-19T09:35:50.030Z,2.30
2018-07-19T09:38:18.325Z,2.13
2018-07-19T09:40:46.538Z,1.60
2018-07-19T09:43:15.553Z,2.40
2018-07-19T09:45:43.790Z,2.10
2018-07-19T09:48:12.048Z,1.93
2018-07-19T09:50:40.575Z,2.00
2018-07-19T09:53:08.839Z,1.80
2018-07-19T09:55:37.090Z,1.90
2018-07-19T09:58:05.328Z,1.90
2018-07-19T10:00:34.006Z,2.03
2018-07-19T10:03:02.565Z,2.00
2018-07-19T10:05:30.822Z,2.10
2018-07-19T10:07:59.847Z,2.13
2018-07-19T10:10:28.099Z,1.93
2018-07-19T10:12:57.113Z,2.00
2018-07-19T10:15:25.755Z,1.77
2018-07-19T10:17:53.978Z,1.70
2018-07-19T10:20:22.307Z,1.70
2018-07-19T10:22:51.322Z,1.90
2018-07-19T10:25:19.678Z,1.97
2018-07-19T10:27:48.680Z,1.70
2018-07-19T10:30:17.693Z,2.10
2018-07-19T10:32:45.954Z,1.93
2018-07-19T10:35:14.946Z,2.33
2018-07-19T10:37:43.967Z,2.00
2018-07-19T10:40:12.232Z,2.03
2018-07-19T10:42:40.494Z,2.10
2018-07-19T10:45:08.735Z,1.97
2018-07-19T10:47:36.977Z,2.13
2018-07-19T10:50:05.430Z,2.17
2018-07-19T10:52:33.674Z,1.90
2018-07-19T10:55:02.693Z,1.90
2018-07-19T10:57:31.058Z,2.30
2018-07-19T10:59:59.242Z,1.83
2018-07-19T11:02:27.486Z,1.90
2018-07-19T11:04:55.730Z,1.80
2018-07-19T11:07:23.971Z,2.00
2018-07-19T11:09:52.301Z,1.70
2018-07-19T11:12:20.499Z,1.90
2018-07-19T11:14:49.501Z,2.30
2018-07-19T11:17:18.510Z,1.80
2018-07-19T11:19:46.759Z,2.07
2018-07-19T11:22:15.774Z,1.83
2018-07-19T11:24:44.042Z,2.00
2018-07-19T11:27:12.261Z,2.07
2018-07-19T11:29:40.722Z,1.77
2018-07-19T11:32:08.966Z,1.90
2018-07-19T11:34:37.968Z,1.80
2018-07-19T11:37:06.366Z,1.83
2018-07-19T11:39:34.887Z,1.70
2018-07-19T11:42:03.146Z,1.80
2018-07-19T11:44:31.397Z,2.10
2018-07-19T11:46:59.637Z,1.93
2018-07-19T11:49:28.641Z,2.10
2018-07-19T11:51:56.898Z,1.90
2018-07-19T11:54:25.894Z,2.00
2018-07-19T11:56:54.915Z,1.90
2018-07-19T11:59:23.146Z,1.80
2018-07-19T12:01:51.382Z,2.00
2018-07-19T12:04:19.654Z,1.80
2018-07-19T12:06:47.873Z,1.80
2018-07-19T12:09:16.883Z,1.70
2018-07-19T12:11:45.905Z,1.93
2018-07-19T12:14:14.149Z,1.80
2018-07-19T12:16:43.149Z,2.10
2018-07-19T12:19:11.550Z,2.00
2018-07-19T12:21:39.794Z,1.80
2018-07-19T12:24:08.053Z,1.90
2018-07-19T12:26:36.296Z,1.90
2018-07-19T12:29:04.553Z,1.63
2018-07-19T12:31:32.813Z,1.77
2018-07-19T12:34:01.071Z,1.90
2018-07-19T12:36:30.078Z,1.70
2018-07-19T12:38:58.333Z,1.97
2018-07-19T12:41:27.343Z,1.97
2018-07-19T12:43:55.593Z,2.00
2018-07-19T12:46:24.596Z,1.80
2018-07-19T12:48:52.858Z,1.60
2018-07-19T12:51:21.102Z,2.00
2018-07-19T12:53:49.352Z,1.70
2018-07-19T12:56:17.606Z,2.10
2018-07-19T12:58:45.846Z,1.80
2018-07-19T13:01:14.850Z,1.83
2018-07-19T13:03:43.886Z,1.93
2018-07-19T13:06:12.128Z,1.77
2018-07-19T13:08:40.384Z,1.87
2018-07-19T13:11:08.662Z,1.80
2018-07-19T13:13:37.806Z,2.00
2018-07-19T13:16:06.041Z,1.57
2018-07-19T13:18:35.081Z,1.83
2018-07-19T13:21:03.320Z,2.00
2018-07-19T13:23:31.587Z,2.00
2018-07-19T13:26:00.591Z,2.03
2018-07-19T13:28:28.849Z,2.30
2018-07-19T13:30:57.872Z,1.80
2018-07-19T13:33:26.105Z,2.13
2018-07-19T13:35:55.128Z,1.87
2018-07-19T13:38:23.387Z,3.03
2018-07-19T13:40:51.626Z,1.80
2018-07-19T13:43:19.865Z,2.03
2018-07-19T13:45:48.103Z,2.07
2018-07-19T13:48:17.152Z,2.40
2018-07-19T13:50:45.365Z,1.97
2018-07-19T13:53:14.394Z,1.80
2018-07-19T13:55:42.633Z,1.90
2018-07-19T13:58:11.654Z,1.80
2018-07-19T14:00:39.911Z,1.97
2018-07-19T14:03:08.930Z,1.50
2018-07-19T14:05:37.165Z,1.70
2018-07-19T14:08:06.348Z,1.90
2018-07-19T14:10:34.593Z,1.80
2018-07-19T14:13:02.830Z,2.13
2018-07-19T14:15:31.249Z,1.70
2018-07-19T14:17:59.476Z,1.80
2018-07-19T14:20:28.485Z,2.40
2018-07-19T14:22:56.759Z,2.43
2018-07-19T14:25:24.993Z,3.10
2018-07-19T14:27:53.258Z,3.43
2018-07-19T14:30:21.505Z,3.87
2018-07-19T14:32:49.746Z,2.80
2018-07-19T14:35:17.999Z,2.10
2018-07-19T14:37:46.253Z,2.20
2018-07-19T14:40:14.657Z,2.00
2018-07-19T14:42:42.889Z,2.40
2018-07-19T14:45:11.143Z,2.27
2018-07-19T14:47:39.404Z,1.97
2018-07-19T14:50:08.408Z,2.20
2018-07-19T14:52:36.644Z,2.07
2018-07-19T14:55:04.901Z,2.10
2018-07-19T14:57:33.143Z,2.10
2018-07-19T15:00:01.396Z,2.40
2018-07-19T15:02:29.659Z,2.40
2018-07-19T15:04:58.663Z,2.10
2018-07-19T15:07:26.950Z,2.10
2018-07-19T15:09:55.926Z,2.20
2018-07-19T15:12:24.177Z,2.20
2018-07-19T15:14:52.585Z,2.27
2018-07-19T15:17:20.833Z,2.37
2018-07-19T15:19:49.075Z,2.03
2018-07-19T15:22:17.338Z,2.27
2018-07-19T15:24:45.610Z,2.30
2018-07-19T15:27:13.869Z,2.30
2018-07-19T15:29:42.102Z,2.13
2018-07-19T15:32:10.506Z,2.53
2018-07-19T15:34:39.503Z,2.20
2018-07-19T15:39:43.129Z,2.17
2018-07-19T15:42:11.370Z,2.20
2018-07-19T15:44:40.368Z,2.00
2018-07-19T15:47:09.393Z,2.50
2018-07-19T15:49:37.639Z,2.03
2018-07-19T15:52:06.804Z,2.30
2018-07-19T15:54:35.039Z,2.20
2018-07-19T15:57:03.286Z,2.13
2018-07-19T15:59:32.318Z,2.20
2018-07-19T16:02:00.576Z,1.90
2018-07-19T16:04:28.805Z,2.10
2018-07-19T16:06:57.123Z,2.40
2018-07-19T16:09:25.293Z,2.40
2018-07-19T16:11:53.537Z,2.37
2018-07-19T16:14:21.781Z,2.23
2018-07-19T16:16:50.035Z,2.00
2018-07-19T16:19:18.303Z,2.13
2018-07-19T16:21:46.545Z,2.03
2018-07-19T16:24:15.558Z,2.30
2018-07-19T16:26:43.807Z,2.03
2018-07-19T16:29:12.826Z,2.37
2018-07-19T16:31:41.067Z,2.30
2018-07-19T16:34:09.358Z,2.17
2018-07-19T16:36:37.563Z,2.47
2018-07-19T16:39:05.803Z,2.00
2018-07-19T16:41:34.835Z,2.10
2018-07-19T16:44:03.076Z,2.07
2018-07-19T16:46:32.158Z,2.30
2018-07-19T16:49:00.346Z,2.20
2018-07-19T16:51:28.594Z,2.23
2018-07-19T16:53:56.851Z,2.57
2018-07-19T16:56:28.091Z,2.20
2018-07-19T16:58:56.345Z,2.10
2018-07-19T17:01:24.582Z,2.77
2018-07-19T17:03:53.585Z,2.20
2018-07-19T17:06:21.841Z,2.40
2018-07-19T17:08:50.849Z,2.43
2018-07-19T17:11:19.095Z,2.17
2018-07-19T17:13:47.352Z,2.20
2018-07-19T17:16:15.598Z,2.27
2018-07-19T17:18:43.858Z,2.50
2018-07-19T17:21:12.102Z,2.27
2018-07-19T17:23:40.341Z,2.40
2018-07-19T17:26:08.594Z,2.47
2018-07-19T17:28:39.500Z,2.43
2018-07-19T17:31:08.521Z,2.47
2018-07-19T17:33:36.790Z,2.70
2018-07-19T17:36:05.050Z,2.80
2018-07-19T17:38:34.058Z,2.70
2018-07-19T17:41:02.421Z,2.30
2018-07-19T17:43:31.421Z,2.70
2018-07-19T17:45:59.682Z,2.77
2018-07-19T17:48:28.702Z,2.60
2018-07-19T17:50:56.965Z,2.67
2018-07-19T17:53:25.227Z,2.43
2018-07-19T17:55:54.226Z,2.93
2018-07-19T17:58:22.466Z,2.37
2018-07-19T18:00:50.724Z,3.00
2018-07-19T18:03:18.970Z,2.63
2018-07-19T18:05:48.045Z,2.50
2018-07-19T18:08:16.295Z,2.57
2018-07-19T18:10:44.540Z,2.80
2018-07-19T18:13:12.790Z,2.47
2018-07-19T18:15:41.034Z,2.53
2018-07-19T18:18:10.079Z,2.90
2018-07-19T18:20:38.318Z,2.60
2018-07-19T18:23:06.566Z,2.90
2018-07-19T18:25:35.662Z,3.07
2018-07-19T18:28:04.663Z,3.03
2018-07-19T18:30:33.669Z,3.07
2018-07-19T18:33:02.291Z,2.73
2018-07-19T18:35:30.754Z,2.70
2018-07-19T18:37:58.988Z,2.67
2018-07-19T18:40:28.007Z,3.00
2018-07-19T18:42:56.269Z,2.47
2018-07-19T18:45:24.532Z,2.83
2018-07-19T18:47:53.627Z,2.73
2018-07-19T18:50:21.810Z,2.87
2018-07-19T18:52:50.090Z,2.80
2018-07-19T18:55:18.333Z,2.73
2018-07-19T18:57:46.610Z,2.80
2018-07-19T19:00:14.850Z,2.77
2018-07-19T19:02:43.141Z,2.87
2018-07-19T19:05:11.386Z,2.70
2018-07-19T19:07:39.650Z,2.87
2018-07-19T19:10:07.924Z,2.77
2018-07-19T19:12:36.177Z,2.97
2018-07-19T19:15:05.286Z,2.87
2018-07-19T19:17:33.621Z,2.70
2018-07-19T19:20:01.873Z,2.97
2018-07-19T19:22:30.121Z,2.70
2018-07-19T19:24:58.513Z,2.70
2018-07-19T19:27:27.630Z,3.03
2018-07-19T19:29:56.647Z,2.73
2018-07-19T19:32:25.704Z,3.00
2018-07-19T19:34:54.046Z,2.83
2018-07-19T19:37:22.306Z,3.00
2018-07-19T19:39:51.090Z,2.80
2018-07-19T19:42:20.123Z,2.67
2018-07-19T19:44:48.393Z,2.83
2018-07-19T19:47:16.674Z,2.90
2018-07-19T19:49:44.934Z,2.63
2018-07-19T19:52:13.185Z,2.80
2018-07-19T19:54:42.210Z,2.70
2018-07-19T19:57:10.458Z,2.70
2018-07-19T19:59:39.490Z,3.67
2018-07-19T20:02:07.734Z,3.10
2018-07-19T20:04:36.006Z,2.87
2018-07-19T20:07:04.240Z,3.00
2018-07-19T20:09:32.803Z,2.50
2018-07-19T20:12:01.071Z,3.13
2018-07-19T20:14:29.333Z,2.93
2018-07-19T20:16:57.600Z,2.90
2018-07-19T20:19:26.610Z,2.80
2018-07-19T20:21:54.867Z,3.40
2018-07-19T20:24:23.114Z,3.17
2018-07-19T20:26:52.144Z,3.00
2018-07-19T20:29:20.616Z,3.10
2018-07-19T20:31:48.869Z,2.80
2018-07-19T20:34:20.449Z,3.43
2018-07-19T20:36:46.154Z,4.10
2018-07-19T20:39:14.426Z,3.10
2018-07-19T20:41:42.667Z,3.07
2018-07-19T20:44:10.909Z,3.30
2018-07-19T20:46:39.189Z,3.20
2018-07-19T20:49:08.242Z,3.27
2018-07-19T20:51:36.441Z,2.97
2018-07-19T20:54:04.708Z,2.93
2018-07-19T20:56:32.946Z,3.17
2018-07-19T20:59:02.013Z,3.17
2018-07-19T21:01:30.247Z,3.07
2018-07-19T21:03:58.499Z,3.10
2018-07-19T21:06:27.521Z,3.60
2018-07-19T21:08:55.761Z,2.90
2018-07-19T21:11:24.783Z,3.50
2018-07-19T21:13:53.029Z,3.20
2018-07-19T21:16:22.038Z,3.47
2018-07-19T21:18:50.301Z,3.27
2018-07-19T21:21:18.586Z,3.13
2018-07-19T21:23:46.829Z,3.13
2018-07-19T21:26:15.902Z,3.50
2018-07-19T21:28:44.857Z,3.37
2018-07-19T21:31:13.116Z,3.37
2018-07-19T21:33:42.139Z,3.57
2018-07-19T21:36:10.376Z,3.00
2018-07-19T21:38:39.407Z,3.30
2018-07-19T21:41:07.657Z,3.83
2018-07-19T21:43:35.899Z,3.10
2018-07-19T21:46:04.166Z,3.17
2018-07-19T21:48:32.437Z,4.00
2018-07-19T21:51:00.696Z,4.10
2018-07-19T21:53:28.929Z,3.87
2018-07-19T21:55:57.189Z,3.70
2018-07-19T21:58:26.221Z,3.40
2018-07-19T22:00:54.494Z,3.60
2018-07-19T22:03:22.753Z,3.73
2018-07-19T22:05:50.992Z,3.43
2018-07-19T22:08:20.035Z,3.63
2018-07-19T22:10:48.339Z,3.57
2018-07-19T22:13:16.586Z,3.73
2018-07-19T22:15:44.838Z,3.77
2018-07-19T22:18:13.582Z,3.50
2018-07-19T22:20:42.006Z,3.77
2018-07-19T22:23:10.274Z,3.70
2018-07-19T22:25:38.540Z,4.10
2018-07-19T22:28:06.838Z,3.80
2018-07-19T22:30:35.093Z,3.83
2018-07-19T22:33:03.351Z,4.03
2018-07-19T22:35:32.370Z,3.70
2018-07-19T22:38:00.625Z,4.03
2018-07-19T22:40:28.868Z,3.77
2018-07-19T22:42:57.125Z,4.00
2018-07-19T22:45:25.417Z,4.60
2018-07-19T22:47:54.424Z,3.83
2018-07-19T22:50:23.435Z,3.63
2018-07-19T22:52:51.713Z,3.80
2018-07-19T22:55:19.950Z,3.97
2018-07-19T22:57:48.215Z,3.57
2018-07-19T23:00:16.474Z,4.20
2018-07-19T23:02:44.717Z,4.07
2018-07-19T23:05:12.978Z,3.53
2018-07-19T23:07:41.238Z,3.80
2018-07-19T23:10:10.253Z,4.00
2018-07-19T23:12:38.517Z,4.00
2018-07-19T23:15:07.543Z,4.40
2018-07-19T23:17:35.798Z,4.47
2018-07-19T23:20:04.039Z,4.27
2018-07-19T23:22:32.309Z,3.90
2018-07-19T23:25:00.554Z,4.37
2018-07-19T23:27:28.798Z,4.00
2018-07-19T23:29:57.086Z,3.97
2018-07-19T23:32:25.329Z,3.70
2018-07-19T23:34:53.573Z,3.60
2018-07-19T23:37:21.829Z,4.30
2018-07-19T23:39:50.099Z,4.20
2018-07-19T23:42:18.347Z,4.30
2018-07-19T23:44:46.637Z,4.10
2018-07-19T23:47:14.870Z,4.20
2018-07-19T23:49:43.107Z,4.07
2018-07-19T23:52:11.369Z,4.17
2018-07-19T23:54:39.630Z,4.03
2018-07-19T23:57:07.877Z,3.90
2018-07-19T23:59:36.910Z,4.30
